Time;durP1;ratioP1;P1;durP2;ratioP2;P2;SDS_P1;SDS_P2;PMS_P1;PMS_P2;Temp;Humidity;BMP_temperature;BMP_pressure;BME280_temperature;BME280_humidity;BME280_pressure;Samples;Min_cycle;Max_cycle;Signal;HPM_P1;HPM_P2
2024/02/16 00:01:18;;;;;;;0.98;0.80;;;;;;;6.97;100.00;100839.69;5039357;28;20496;-67
2024/02/16 00:03:44;;;;;;;0.93;0.70;;;;;;;6.85;100.00;100808.16;5040414;28;20564;-70
2024/02/16 00:06:10;;;;;;;1.15;0.60;;;;;;;6.89;100.00;100817.50;5039600;28;20113;-67
2024/02/16 00:08:38;;;;;;;0.65;0.50;;;;;;;7.04;100.00;100835.31;5038218;28;20396;-66
2024/02/16 00:11:04;;;;;;;1.45;0.70;;;;;;;7.07;100.00;100832.28;5039023;28;20032;-66
2024/02/16 00:13:29;;;;;;;1.50;0.82;;;;;;;7.09;100.00;100820.59;5040705;28;20052;-66
2024/02/16 00:15:55;;;;;;;2.05;0.90;;;;;;;7.11;100.00;100826.59;5022095;28;20029;-66
2024/02/16 00:18:20;;;;;;;2.97;0.65;;;;;;;7.10;100.00;100819.56;5040302;28;20030;-65
2024/02/16 00:20:46;;;;;;;0.95;0.60;;;;;;;7.16;100.00;100829.56;5038534;28;20061;-66
2024/02/16 00:23:11;;;;;;;0.70;0.70;;;;;;;7.06;100.00;100801.19;5038214;28;20659;-66
2024/02/16 00:25:38;;;;;;;1.42;0.60;;;;;;;7.10;100.00;100808.88;5039422;28;20031;-66
2024/02/16 00:28:03;;;;;;;1.40;0.70;;;;;;;7.18;100.00;100815.00;5038847;28;20060;-66
2024/02/16 00:30:29;;;;;;;2.20;0.70;;;;;;;7.28;100.00;100828.16;5038419;28;20033;-66
2024/02/16 00:32:54;;;;;;;2.90;0.70;;;;;;;7.27;100.00;100827.31;5019868;28;20034;-65
2024/02/16 00:35:20;;;;;;;2.67;0.60;;;;;;;7.32;100.00;100836.66;5020788;28;20038;-65
2024/02/16 00:37:45;;;;;;;1.30;0.50;;;;;;;7.32;100.00;100828.63;5036955;28;20128;-65
2024/02/16 00:40:12;;;;;;;2.65;0.70;;;;;;;7.32;100.00;100836.66;5038469;28;20036;-66
2024/02/16 00:42:39;;;;;;;2.65;0.60;;;;;;;7.32;100.00;100829.47;5038334;28;20093;-66
2024/02/16 00:45:04;;;;;;;2.08;0.60;;;;;;;7.28;100.00;100833.50;5037396;28;20029;-66
2024/02/16 00:47:30;;;;;;;2.45;0.50;;;;;;;7.31;100.00;100838.50;5038564;28;20032;-66
2024/02/16 00:49:57;;;;;;;1.02;0.40;;;;;;;7.32;100.00;100833.97;5037950;28;20529;-66
2024/02/16 00:52:22;;;;;;;2.65;0.60;;;;;;;7.32;100.00;100829.47;5037417;28;20048;-66
2024/02/16 00:54:49;;;;;;;1.98;0.50;;;;;;;7.33;100.00;100835.66;5040036;28;20034;-66
2024/02/16 00:57:14;;;;;;;1.92;0.70;;;;;;;7.25;100.00;100809.75;5038827;28;20033;-66
2024/02/16 00:59:40;;;;;;;3.05;0.80;;;;;;;7.32;100.00;100808.06;5039556;28;20056;-66
2024/02/16 01:02:06;;;;;;;3.88;0.88;;;;;;;7.35;100.00;100807.72;5039627;28;20021;-66
2024/02/16 01:04:33;;;;;;;4.30;0.70;;;;;;;7.39;100.00;100795.63;5039076;28;20026;-66
2024/02/16 01:06:58;;;;;;;1.10;0.50;;;;;;;7.30;100.00;100784.13;5037689;28;20451;-66
2024/02/16 01:09:23;;;;;;;1.60;0.57;;;;;;;7.41;100.00;100806.97;5037113;28;20059;-65
2024/02/16 01:11:49;;;;;;;3.00;0.63;;;;;;;7.42;100.00;100781.06;5036550;28;20053;-68
2024/02/16 01:14:15;;;;;;;2.63;0.70;;;;;;;7.37;100.00;100786.94;5036602;28;20037;-67
2024/02/16 01:16:40;;;;;;;0.88;0.63;;;;;;;7.40;100.00;100789.25;5033831;28;20026;-66
2024/02/16 01:19:07;;;;;;;4.15;1.02;;;;;;;7.38;100.00;100782.41;5035454;28;20555;-66
2024/02/16 01:21:32;;;;;;;2.83;0.90;;;;;;;7.36;100.00;100777.25;5036461;28;20064;-66
2024/02/16 01:23:59;;;;;;;3.75;1.00;;;;;;;7.34;100.00;100775.75;5036431;28;20396;-66
2024/02/16 01:26:24;;;;;;;4.53;1.08;;;;;;;7.30;100.00;100783.31;5035202;28;20022;-65
2024/02/16 01:28:50;;;;;;;2.22;0.90;;;;;;;7.24;100.00;100784.00;5034647;28;20034;-70
2024/02/16 01:31:15;;;;;;;1.48;0.90;;;;;;;7.15;100.00;100769.88;5036284;28;20030;-66
2024/02/16 01:33:41;;;;;;;3.03;1.08;;;;;;;7.07;100.00;100764.56;5019138;28;20044;-66
2024/02/16 01:36:06;;;;;;;7.07;1.30;;;;;;;7.02;100.00;100775.81;5035400;28;20488;-66
2024/02/16 01:38:32;;;;;;;4.15;1.40;;;;;;;6.93;100.00;100770.69;5035337;28;20144;-66
2024/02/16 01:40:58;;;;;;;3.47;1.27;;;;;;;6.86;100.00;100773.22;5036064;28;20266;-66
2024/02/16 01:43:23;;;;;;;5.13;1.40;;;;;;;6.79;100.00;100769.59;5035803;28;20488;-66
2024/02/16 01:45:49;;;;;;;6.07;1.80;;;;;;;6.74;100.00;100774.63;5037246;28;20029;-65
2024/02/16 01:48:15;;;;;;;4.90;1.50;;;;;;;6.66;100.00;100767.47;5020911;28;20034;-65
2024/02/16 01:50:45;;;;;;;7.28;1.83;;;;;;;6.61;100.00;100761.81;5036872;28;20061;-66
2024/02/16 01:53:12;;;;;;;8.40;2.28;;;;;;;6.57;100.00;100755.97;5038358;28;20063;-65
2024/02/16 01:55:38;;;;;;;7.00;2.67;;;;;;;6.56;100.00;100756.16;5038489;28;20049;-68
2024/02/16 01:58:04;;;;;;;7.30;2.60;;;;;;;6.53;100.00;100754.66;5037767;28;20021;-66
2024/02/16 02:00:30;;;;;;;6.20;2.70;;;;;;;6.52;100.00;100750.34;5037506;28;20045;-66
2024/02/16 02:02:57;;;;;;;7.78;2.60;;;;;;;6.53;100.00;100753.84;5037698;28;20068;-79
2024/02/16 02:05:23;;;;;;;11.52;2.70;;;;;;;6.39;100.00;100727.81;5036399;28;20045;-65
2024/02/16 02:07:49;;;;;;;8.82;2.70;;;;;;;6.57;100.00;100745.28;5035205;28;20045;-66
2024/02/16 02:10:14;;;;;;;8.15;2.65;;;;;;;6.65;100.00;100755.09;5033868;28;20488;-66
2024/02/16 02:12:42;;;;;;;6.20;2.80;;;;;;;6.70;100.00;100743.91;5037158;28;20032;-66
2024/02/16 02:15:08;;;;;;;9.77;3.15;;;;;;;6.72;100.00;100748.06;5004189;28;20117;-66
2024/02/16 02:17:34;;;;;;;7.15;2.78;;;;;;;6.72;100.00;100740.03;5037699;28;20021;-64
2024/02/16 02:20:00;;;;;;;12.32;3.20;;;;;;;6.73;100.00;100744.38;5037224;28;20113;-66
2024/02/16 02:22:27;;;;;;;12.68;3.13;;;;;;;6.72;100.00;100745.38;5036559;28;20061;-66
2024/02/16 02:24:55;;;;;;;10.85;3.10;;;;;;;6.73;100.00;100748.91;5037954;28;20044;-66
2024/02/16 02:27:21;;;;;;;7.50;2.75;;;;;;;6.72;100.00;100740.03;5037963;28;20045;-65
2024/02/16 02:29:46;;;;;;;6.88;3.00;;;;;;;6.69;100.00;100735.03;5020482;28;20029;-65
2024/02/16 02:32:13;;;;;;;10.45;3.08;;;;;;;6.70;100.00;100735.88;5038030;28;20025;-66
2024/02/16 02:34:39;;;;;;;7.28;2.88;;;;;;;6.63;100.00;100727.72;5037923;28;20036;-65
2024/02/16 02:37:05;;;;;;;8.82;3.05;;;;;;;6.70;100.00;100733.19;5019414;28;20508;-65
2024/02/16 02:39:31;;;;;;;7.55;2.92;;;;;;;6.62;100.00;100719.84;5037170;28;20037;-65
2024/02/16 02:41:57;;;;;;;8.45;3.30;;;;;;;6.68;100.00;100735.19;5036578;28;20041;-65
2024/02/16 02:44:24;;;;;;;11.15;3.47;;;;;;;6.63;100.00;100729.56;5039232;28;20093;-65
2024/02/16 02:46:50;;;;;;;8.80;2.97;;;;;;;6.58;100.00;100730.91;5038616;28;20040;-65
2024/02/16 02:49:15;;;;;;;7.88;3.00;;;;;;;6.53;100.00;100735.13;5038271;28;20029;-66
2024/02/16 02:51:41;;;;;;;12.43;3.20;;;;;;;6.47;100.00;100728.63;5022040;28;20087;-65
2024/02/16 02:54:06;;;;;;;9.68;3.25;;;;;;;6.39;100.00;100726.00;5037807;28;20037;-65
2024/02/16 02:56:32;;;;;;;10.15;3.20;;;;;;;6.39;100.00;100730.50;5039098;28;20537;-65
2024/02/16 02:58:57;;;;;;;8.55;3.13;;;;;;;6.30;100.00;100725.19;5038981;28;20241;-66
2024/02/16 03:01:23;;;;;;;10.10;3.10;;;;;;;6.29;100.00;100725.34;5039246;28;20084;-66
2024/02/16 03:03:48;;;;;;;11.95;3.67;;;;;;;6.24;100.00;100722.38;5041220;28;20028;-68
2024/02/16 03:06:20;;;;;;;10.27;3.55;;;;;;;6.20;100.00;100718.41;5041014;28;20037;-64
2024/02/16 03:08:45;;;;;;;12.50;4.35;;;;;;;6.17;100.00;100719.56;5041794;28;20040;-65
2024/02/16 03:11:11;;;;;;;14.93;4.07;;;;;;;6.14;100.00;100713.72;5041663;28;20033;-65
2024/02/16 03:13:37;;;;;;;12.95;4.60;;;;;;;6.07;100.00;100710.91;5039333;28;20128;-66
2024/02/16 03:16:03;;;;;;;20.73;4.78;;;;;;;6.01;100.00;100695.56;5040761;28;20036;-65
2024/02/16 03:18:33;;;;;;;15.88;4.53;;;;;;;6.05;100.00;100705.72;5039384;28;20029;-65
2024/02/16 03:20:59;;;;;;;9.13;3.05;;;;;;;6.04;100.00;100705.91;5040642;28;20121;-66
2024/02/16 03:23:26;;;;;;;8.98;3.05;;;;;;;6.00;100.00;100694.75;5021734;28;20140;-65
2024/02/16 03:25:52;;;;;;;8.75;2.88;;;;;;;5.99;100.00;100698.41;5039460;28;20052;-69
2024/02/16 03:28:17;;;;;;;8.55;3.10;;;;;;;5.99;100.00;100702.91;5038980;28;20415;-65
2024/02/16 03:30:44;;;;;;;9.57;2.97;;;;;;;5.97;100.00;100692.41;5037696;28;20476;-66
2024/02/16 03:33:10;;;;;;;8.75;3.08;;;;;;;5.96;100.00;100701.44;5039714;28;20029;-65
2024/02/16 03:35:36;;;;;;;10.07;3.60;;;;;;;5.90;100.00;100683.41;5040566;28;20068;-66
2024/02/16 03:38:02;;;;;;;9.82;3.95;;;;;;;5.95;100.00;100691.75;5041270;28;20065;-68
2024/02/16 03:40:29;;;;;;;15.68;3.85;;;;;;;5.94;100.00;100690.09;5041091;28;20080;-65
2024/02/16 03:42:55;;;;;;;17.38;4.15;;;;;;;5.94;100.00;100684.75;5036932;28;20034;-65
2024/02/16 03:45:21;;;;;;;22.50;5.40;;;;;;;5.92;100.00;100689.38;5036607;28;20057;-65
2024/02/16 03:47:48;;;;;;;32.90;5.72;;;;;;;5.91;100.00;100685.06;5039118;28;20062;-65
2024/02/16 03:50:15;;;;;;;55.22;8.07;;;;;;;5.90;100.00;100678.06;5039945;28;20033;-65
2024/02/16 03:52:41;;;;;;;62.38;8.27;;;;;;;5.86;100.00;100672.22;5040543;28;20391;-66
2024/02/16 03:55:07;;;;;;;65.15;9.30;;;;;;;5.86;100.00;100682.06;5039325;28;20035;-65
2024/02/16 03:57:32;;;;;;;75.60;8.88;;;;;;;5.76;100.00;100665.41;5038957;28;20025;-65
2024/02/16 03:59:59;;;;;;;71.85;8.45;;;;;;;5.84;100.00;100678.75;5039799;28;20036;-65
2024/02/16 04:02:24;;;;;;;67.93;9.55;;;;;;;5.83;100.00;100669.91;5039729;28;20018;-70
2024/02/16 04:04:49;;;;;;;90.82;10.60;;;;;;;5.82;100.00;100670.06;5039251;28;20048;-66
2024/02/16 04:07:16;;;;;;;42.92;8.65;;;;;;;5.83;100.00;100669.91;5040579;28;20033;-66
2024/02/16 04:09:42;;;;;;;51.88;9.00;;;;;;;5.76;100.00;100657.38;5039300;28;20037;-66
2024/02/16 04:12:07;;;;;;;52.90;8.50;;;;;;;5.76;100.00;100654.72;5022639;28;20484;-66
2024/02/16 04:14:33;;;;;;;69.00;10.20;;;;;;;5.82;100.00;100670.06;5037569;28;20026;-65
2024/02/16 04:16:59;;;;;;;108.65;11.07;;;;;;;5.82;100.00;100664.72;5038833;28;20018;-68
2024/02/16 04:19:26;;;;;;;86.28;10.85;;;;;;;5.83;100.00;100661.88;5037765;28;20036;-66
2024/02/16 04:21:51;;;;;;;60.75;9.18;;;;;;;5.81;100.00;100663.88;5037317;28;20057;-65
2024/02/16 04:24:17;;;;;;;81.70;9.77;;;;;;;5.80;100.00;100656.88;5020829;28;20021;-65
2024/02/16 04:26:43;;;;;;;90.93;10.90;;;;;;;5.78;100.00;100655.38;5037801;28;20483;-66
2024/02/16 04:29:08;;;;;;;82.90;10.80;;;;;;;5.76;100.00;100657.38;5038142;28;20037;-65
2024/02/16 04:31:34;;;;;;;95.32;11.80;;;;;;;5.75;100.00;100651.22;5038794;28;20112;-71
2024/02/16 04:33:59;;;;;;;96.95;12.07;;;;;;;5.74;100.00;100635.38;5038309;28;20039;-65
2024/02/16 04:36:25;;;;;;;110.28;12.38;;;;;;;5.74;100.00;100646.06;5020321;28;20038;-66
2024/02/16 04:38:50;;;;;;;106.45;11.52;;;;;;;5.65;100.00;100622.03;5038885;28;20034;-66
2024/02/16 04:41:16;;;;;;;116.05;11.60;;;;;;;5.74;100.00;100630.03;5037055;28;20041;-65
2024/02/16 04:43:41;;;;;;;83.35;10.30;;;;;;;5.72;100.00;100627.53;5038658;28;20108;-66
2024/02/16 04:46:06;;;;;;;112.25;12.25;;;;;;;5.68;100.00;100614.72;5021183;28;20030;-66
2024/02/16 04:48:33;;;;;;;92.40;11.85;;;;;;;5.75;100.00;100627.19;5038235;28;20445;-65
2024/02/16 04:50:59;;;;;;;88.93;10.82;;;;;;;5.76;100.00;100628.00;5038128;28;20056;-65
2024/02/16 04:53:25;;;;;;;114.45;11.90;;;;;;;5.76;100.00;100630.69;5037517;28;20041;-66
2024/02/16 04:55:50;;;;;;;90.55;10.60;;;;;;;5.77;100.00;100627.03;5039173;28;20056;-66
2024/02/16 04:58:16;;;;;;;111.32;12.15;;;;;;;5.73;100.00;100623.03;5038597;28;20064;-65
2024/02/16 05:00:41;;;;;;;82.63;12.07;;;;;;;5.77;100.00;100629.72;5038739;28;20144;-66
2024/02/16 05:03:07;;;;;;;106.78;12.93;;;;;;;5.75;100.00;100627.19;5036493;28;20516;-65
2024/02/16 05:05:32;;;;;;;100.78;12.48;;;;;;;5.63;100.00;100602.72;5037185;28;20166;-65
2024/02/16 05:07:58;;;;;;;111.88;12.75;;;;;;;5.81;100.00;100631.03;5035322;28;20033;-66
2024/02/16 05:10:23;;;;;;;105.05;11.00;;;;;;;5.83;100.00;100613.00;5036924;28;20029;-66
2024/02/16 05:12:49;;;;;;;108.10;11.95;;;;;;;5.84;100.00;100628.84;5037247;28;20036;-66
2024/02/16 05:15:16;;;;;;;123.90;11.52;;;;;;;5.84;100.00;100625.34;5037863;28;20041;-66
2024/02/16 05:17:42;;;;;;;82.03;10.85;;;;;;;5.87;100.00;100619.66;5037248;28;20029;-66
2024/02/16 05:20:15;;;;;;;99.30;10.52;;;;;;;5.89;100.00;100621.16;5037675;28;20234;-65
2024/02/16 05:22:46;;;;;;;67.75;9.18;;;;;;;5.92;100.00;100622.63;5019925;28;20033;-65
2024/02/16 05:25:12;;;;;;;46.00;7.90;;;;;;;5.94;100.00;100617.97;5036377;28;20079;-65
2024/02/16 05:27:38;;;;;;;34.03;7.25;;;;;;;5.98;100.00;100624.63;5036406;28;20480;-67
2024/02/16 05:30:07;;;;;;;30.98;7.32;;;;;;;6.01;100.00;100616.28;5035990;28;20087;-66
2024/02/16 05:32:37;;;;;;;25.70;7.07;;;;;;;6.04;100.00;100609.75;5019362;28;20029;-65
2024/02/16 05:35:11;;;;;;;33.55;6.07;;;;;;;6.09;100.00;100602.03;5036082;28;20041;-65
2024/02/16 05:37:40;;;;;;;33.55;6.78;;;;;;;6.11;100.00;100578.66;5036211;28;20056;-65
2024/02/16 05:40:18;;;;;;;42.80;8.02;;;;;;;6.09;100.00;100581.53;5019348;28;20120;-66
2024/02/16 05:42:45;;;;;;;36.60;6.45;;;;;;;6.16;100.00;100594.16;5035209;28;20084;-65
2024/02/16 05:45:11;;;;;;;36.10;7.65;;;;;;;6.18;100.00;100601.00;5036760;28;20037;-66
2024/02/16 05:47:38;;;;;;;48.85;7.25;;;;;;;6.23;100.00;100603.16;5036633;28;20556;-66
2024/02/16 05:50:04;;;;;;;46.13;8.32;;;;;;;6.11;100.00;100576.81;5035283;28;20116;-66
2024/02/16 05:52:30;;;;;;;52.13;8.93;;;;;;;6.28;100.00;100579.41;5036513;28;20037;-66
2024/02/16 05:54:56;;;;;;;67.82;9.55;;;;;;;6.21;100.00;100570.44;5037800;28;20052;-66
2024/02/16 05:57:21;;;;;;;77.90;11.80;;;;;;;6.19;100.00;100564.41;5036808;28;20093;-66
2024/02/16 05:59:46;;;;;;;65.50;11.63;;;;;;;6.26;100.00;100581.44;5036450;28;20100;-67
2024/02/16 06:02:12;;;;;;;64.40;10.20;;;;;;;6.19;100.00;100572.44;5034555;28;20095;-65
2024/02/16 06:04:39;;;;;;;65.47;9.48;;;;;;;6.23;100.00;100579.94;5035812;28;20189;-66
2024/02/16 06:07:04;;;;;;;54.67;9.43;;;;;;;6.25;100.00;100587.75;5035733;28;20029;-65
2024/02/16 06:09:34;;;;;;;58.47;9.35;;;;;;;6.19;100.00;100580.44;5038340;28;20175;-72
2024/02/16 06:12:03;;;;;;;46.28;8.07;;;;;;;6.23;100.00;100579.13;5035732;28;20030;-66
2024/02/16 06:14:30;;;;;;;52.28;8.50;;;;;;;6.21;100.00;100581.13;5034185;28;20035;-66
2024/02/16 06:16:55;;;;;;;33.53;7.47;;;;;;;6.20;100.00;100596.31;5018940;28;20026;-68
2024/02/16 06:19:21;;;;;;;34.10;7.88;;;;;;;6.19;100.00;100596.47;5040367;28;20060;-67
2024/02/16 06:21:46;;;;;;;29.40;7.22;;;;;;;6.20;100.00;100595.50;5037936;28;20052;-66
2024/02/16 06:24:17;;;;;;;24.65;7.10;;;;;;;6.21;100.00;100583.78;5041409;28;20045;-68
2024/02/16 06:26:43;;;;;;;25.20;7.13;;;;;;;6.28;100.00;100580.22;5034898;28;20035;-77
2024/02/16 06:29:08;;;;;;;28.17;6.97;;;;;;;6.36;100.00;100587.38;5037799;28;20041;-66
2024/02/16 06:31:34;;;;;;;19.50;6.43;;;;;;;6.41;100.00;100578.81;5036244;28;20029;-65
2024/02/16 06:33:59;;;;;;;16.00;6.15;;;;;;;6.43;100.00;100580.31;5041675;28;20059;-68
2024/02/16 06:36:25;;;;;;;16.27;5.63;;;;;;;6.50;100.00;100562.56;5030610;28;20037;-69
2024/02/16 06:38:51;;;;;;;13.77;5.50;;;;;;;6.52;100.00;100571.22;5045390;28;20060;-67
2024/02/16 06:41:18;;;;;;;16.23;4.68;;;;;;;6.57;100.00;100579.53;5012000;28;20060;-67
2024/02/16 06:43:44;;;;;;;10.75;4.38;;;;;;;6.58;100.00;100567.81;5024606;28;20029;-68
2024/02/16 06:46:10;;;;;;;9.75;4.30;;;;;;;6.28;100.00;100509.94;5043263;28;20033;-67
2024/02/16 06:48:35;;;;;;;9.43;4.00;;;;;;;6.60;100.00;100564.97;5024576;28;20055;-67
2024/02/16 06:51:00;;;;;;;10.18;4.70;;;;;;;6.59;100.00;100571.34;5041161;28;20052;-68
2024/02/16 06:53:26;;;;;;;9.75;4.07;;;;;;;6.59;100.00;100574.03;5040273;28;20044;-66
2024/02/16 06:55:51;;;;;;;13.23;5.38;;;;;;;6.54;100.00;100571.88;5040987;28;20036;-67
2024/02/16 06:58:17;;;;;;;14.18;4.97;;;;;;;6.49;100.00;100576.94;5040992;28;20026;-65
2024/02/16 07:00:42;;;;;;;14.95;5.55;;;;;;;6.44;100.00;100581.13;5040086;28;20116;-67
2024/02/16 07:03:08;;;;;;;20.95;6.95;;;;;;;6.40;100.00;100593.19;5042240;28;20184;-69
2024/02/16 07:05:34;;;;;;;18.60;6.22;;;;;;;6.33;100.00;100598.41;5042210;28;20374;-73
2024/02/16 07:08:00;;;;;;;19.75;6.45;;;;;;;6.29;100.00;100591.75;5041297;28;20038;-68
2024/02/16 07:10:25;;;;;;;24.92;7.18;;;;;;;6.31;100.00;100590.56;5040765;28;20384;-67
2024/02/16 07:12:50;;;;;;;23.35;7.68;;;;;;;6.44;100.00;100595.34;5041931;28;20552;-67
2024/02/16 07:15:16;;;;;;;33.13;8.70;;;;;;;6.48;100.00;100585.13;5042580;28;20037;-66
2024/02/16 07:17:41;;;;;;;29.98;9.55;;;;;;;6.52;100.00;100613.16;5040527;28;20112;-71
2024/02/16 07:20:07;;;;;;;31.58;9.38;;;;;;;6.55;100.00;100583.38;5040416;28;20360;-66
2024/02/16 07:22:33;;;;;;;38.42;9.75;;;;;;;6.59;100.00;100580.19;5037027;28;20041;-67
2024/02/16 07:25:03;;;;;;;40.08;9.85;;;;;;;6.56;100.00;100567.19;5039609;28;20025;-67
2024/02/16 07:27:28;;;;;;;37.03;9.50;;;;;;;6.66;100.00;100583.00;5040228;28;20044;-67
2024/02/16 07:29:53;;;;;;;41.15;10.45;;;;;;;6.68;100.00;100580.13;5040135;28;20029;-69
2024/02/16 07:32:19;;;;;;;44.70;10.32;;;;;;;6.67;100.00;100586.50;5040030;28;20471;-67
2024/02/16 07:34:47;;;;;;;36.97;10.32;;;;;;;6.69;100.00;100590.66;5041878;28;20093;-66
2024/02/16 07:37:13;;;;;;;50.97;12.57;;;;;;;6.71;100.00;100575.25;5040345;28;20052;-67
2024/02/16 07:39:40;;;;;;;40.25;10.65;;;;;;;6.71;100.00;100574.41;5039374;28;20490;-67
2024/02/16 07:42:09;;;;;;;30.85;10.07;;;;;;;6.63;100.00;100551.25;5041381;28;20029;-68
2024/02/16 07:44:35;;;;;;;27.27;9.60;;;;;;;6.75;100.00;100565.84;5024595;28;20025;-72
2024/02/16 07:47:01;;;;;;;32.80;10.00;;;;;;;6.74;100.00;100553.50;5023716;28;20459;-71
2024/02/16 07:49:26;;;;;;;30.23;9.88;;;;;;;6.81;100.00;100554.44;5039750;28;20128;-69
2024/02/16 07:51:51;;;;;;;27.60;8.80;;;;;;;6.85;100.00;100551.41;5022946;28;20025;-66
2024/02/16 07:54:17;;;;;;;22.67;9.05;;;;;;;6.59;100.00;100526.72;5023377;28;20028;-66
2024/02/16 07:56:42;;;;;;;25.35;9.18;;;;;;;6.80;100.00;100552.78;5039471;28;20018;-73
2024/02/16 07:59:07;;;;;;;23.73;9.80;;;;;;;6.82;100.00;100555.25;5039577;28;20035;-67
2024/02/16 08:01:34;;;;;;;25.45;9.55;;;;;;;6.80;100.00;100551.94;5038081;28;20053;-66
2024/02/16 08:04:00;;;;;;;22.83;8.40;;;;;;;6.74;100.00;100566.88;5039828;28;20392;-70
2024/02/16 08:06:26;;;;;;;19.33;7.10;;;;;;;6.64;100.00;100560.09;5022577;28;20033;-66
2024/02/16 08:08:52;;;;;;;24.30;7.47;;;;;;;6.52;100.00;100540.97;5040605;28;20236;-69
2024/02/16 08:11:17;;;;;;;18.75;6.47;;;;;;;6.45;100.00;100562.25;5041515;28;20082;-68
2024/02/16 08:13:43;;;;;;;15.93;6.50;;;;;;;6.43;100.00;100558.09;5040377;28;20106;-68
2024/02/16 08:16:08;;;;;;;14.50;5.40;;;;;;;6.36;100.00;100560.66;5040480;28;20048;-68
2024/02/16 08:18:34;;;;;;;19.52;5.80;;;;;;;6.33;100.00;100542.31;5039225;28;20021;-68
2024/02/16 08:21:06;;;;;;;18.23;6.65;;;;;;;6.24;100.00;100551.38;5038108;28;20120;-68
2024/02/16 08:23:31;;;;;;;18.65;6.78;;;;;;;6.28;100.00;100552.69;5040615;28;20025;-68
2024/02/16 08:25:57;;;;;;;15.98;5.90;;;;;;;6.25;100.00;100542.34;5038773;28;20100;-66
2024/02/16 08:28:24;;;;;;;19.77;6.78;;;;;;;6.14;100.00;100519.53;5040929;28;20040;-66
2024/02/16 08:30:50;;;;;;;20.65;7.05;;;;;;;6.25;100.00;100519.13;5019567;28;20368;-66
2024/02/16 08:33:15;;;;;;;18.15;7.18;;;;;;;6.23;100.00;100545.22;5021598;28;20034;-66
2024/02/16 08:35:41;;;;;;;18.92;6.68;;;;;;;6.22;100.00;100548.03;5021306;28;20044;-66
2024/02/16 08:38:10;;;;;;;21.25;6.70;;;;;;;6.24;100.00;100538.00;5019506;28;20057;-67
2024/02/16 08:40:37;;;;;;;33.50;7.88;;;;;;;6.27;100.00;100540.34;5019767;28;20480;-68
2024/02/16 08:43:03;;;;;;;27.20;7.20;;;;;;;6.26;100.00;100536.84;5019232;28;20451;-68
2024/02/16 08:45:28;;;;;;;24.20;7.15;;;;;;;6.16;100.00;100519.34;5019511;28;20116;-67
2024/02/16 08:47:54;;;;;;;29.25;7.88;;;;;;;6.29;100.00;100535.63;5019005;28;20037;-72
2024/02/16 08:50:19;;;;;;;31.35;8.93;;;;;;;6.31;100.00;100531.78;5020286;28;20628;-67
2024/02/16 08:52:45;;;;;;;33.75;9.30;;;;;;;6.34;100.00;100535.94;5020751;28;20116;-66
2024/02/16 08:55:10;;;;;;;32.53;11.02;;;;;;;6.39;100.00;100532.72;5035283;28;20030;-67
2024/02/16 08:57:36;;;;;;;36.00;10.65;;;;;;;6.42;100.00;100535.88;5020315;28;20061;-66
2024/02/16 09:00:01;;;;;;;36.08;11.85;;;;;;;6.42;100.00;100525.19;5018989;28;20028;-66
2024/02/16 09:02:26;;;;;;;43.17;12.77;;;;;;;6.32;100.00;100500.53;5020650;28;20044;-67
2024/02/16 09:04:52;;;;;;;46.15;12.85;;;;;;;6.50;100.00;100513.59;5019984;28;20084;-70
2024/02/16 09:07:17;;;;;;;66.30;14.82;;;;;;;6.52;100.00;100509.75;5019436;28;20485;-69
2024/02/16 09:09:43;;;;;;;65.13;14.60;;;;;;;6.57;100.00;100504.69;5019502;28;20037;-71
2024/02/16 09:12:09;;;;;;;60.60;14.07;;;;;;;6.57;100.00;100496.66;5020044;28;20524;-69
2024/02/16 09:14:34;;;;;;;57.17;14.55;;;;;;;6.57;100.00;100507.34;5019565;28;20094;-70
2024/02/16 09:17:00;;;;;;;56.00;14.85;;;;;;;6.59;100.00;100505.34;5019508;28;20041;-70
2024/02/16 09:19:25;;;;;;;58.33;14.93;;;;;;;6.51;100.00;100484.00;5035720;28;20131;-68
2024/02/16 09:21:51;;;;;;;63.90;16.48;;;;;;;6.70;100.00;100503.25;5018511;28;20034;-68
2024/02/16 09:24:18;;;;;;;55.55;16.02;;;;;;;6.68;100.00;100494.56;5018233;28;20081;-69
2024/02/16 09:26:45;;;;;;;66.57;18.25;;;;;;;6.68;100.00;100490.03;5034946;28;20037;-67
2024/02/16 09:29:13;;;;;;;72.82;19.50;;;;;;;6.76;100.00;100489.16;5020064;28;20056;-68
2024/02/16 09:31:39;;;;;;;70.28;19.52;;;;;;;6.80;100.00;100493.13;5019708;28;20033;-66
2024/02/16 09:34:05;;;;;;;70.85;18.95;;;;;;;6.64;100.00;100463.84;5020652;28;20034;-67
2024/02/16 09:36:30;;;;;;;84.78;19.45;;;;;;;6.77;100.00;100478.25;5017607;28;20112;-67
2024/02/16 09:38:56;;;;;;;89.00;19.08;;;;;;;6.78;100.00;100481.75;5018409;28;20030;-70
2024/02/16 09:41:21;;;;;;;88.18;18.25;;;;;;;6.78;100.00;100492.47;5036385;28;20045;-69
2024/02/16 09:43:47;;;;;;;91.03;19.25;;;;;;;6.75;100.00;100482.94;5037307;28;20033;-68
2024/02/16 09:46:13;;;;;;;91.82;17.90;;;;;;;6.72;100.00;100480.66;5039540;28;20041;-68
2024/02/16 09:48:40;;;;;;;100.35;19.27;;;;;;;6.68;100.00;100481.19;5037904;28;20033;-71
2024/02/16 09:51:05;;;;;;;86.80;18.27;;;;;;;6.50;100.00;100458.31;5037798;28;20018;-66
2024/02/16 09:53:30;;;;;;;92.60;19.00;;;;;;;6.66;100.00;100493.94;5037011;28;20079;-67
2024/02/16 09:55:56;;;;;;;99.55;18.60;;;;;;;6.62;100.00;100496.09;5038043;28;20029;-69
2024/02/16 09:58:22;;;;;;;99.80;20.35;;;;;;;6.63;100.00;100491.63;5043079;28;20108;-68
2024/02/16 10:00:51;;;;;;;90.90;19.80;;;;;;;6.56;100.00;100483.50;5043074;28;20030;-68
2024/02/16 10:03:35;;;;;;;94.05;21.67;;;;;;;6.65;100.00;100494.94;5042346;28;20029;-69
2024/02/16 10:06:11;;;;;;;87.03;22.10;;;;;;;6.66;100.00;100493.94;5042049;28;20026;-68
2024/02/16 10:08:56;;;;;;;87.00;22.80;;;;;;;6.74;100.00;100499.19;5024548;28;20045;-67
2024/02/16 10:11:24;;;;;;;;;;;;;;;6.77;100.00;100498.84;5040483;28;20029;-69
2024/02/16 10:13:58;;;;;;;102.53;23.77;;;;;;;6.79;100.00;100488.78;5042270;28;19908;-66
2024/02/16 10:16:24;;;;;;;81.03;23.50;;;;;;;6.83;100.00;100498.09;5042402;28;20056;-67
2024/02/16 10:18:49;;;;;;;100.97;27.25;;;;;;;6.86;100.00;100487.03;5042354;28;20083;-67
2024/02/16 10:21:27;;;;;;;92.60;26.35;;;;;;;6.87;100.00;100487.88;5042883;28;20021;-67
2024/02/16 10:24:10;;;;;;;92.07;26.73;;;;;;;6.88;100.00;100485.00;5043179;28;20041;-67
2024/02/16 10:26:37;;;;;;;104.15;27.13;;;;;;;6.94;100.00;100486.13;5042316;28;20496;-66
2024/02/16 10:29:04;;;;;;;111.85;39.75;;;;;;;6.88;100.00;100468.13;5044550;28;20030;-66
2024/02/16 10:31:31;;;;;;;108.63;32.97;;;;;;;6.85;100.00;100457.78;5043817;28;20064;-66
2024/02/16 10:33:59;;;;;;;97.80;32.88;;;;;;;7.08;100.00;100482.63;5042324;28;20033;-67
2024/02/16 10:36:28;;;;;;;97.63;30.20;;;;;;;7.06;100.00;100474.78;5045034;28;20025;-66
2024/02/16 10:38:55;;;;;;;101.05;31.65;;;;;;;7.03;100.00;100468.97;5043510;28;20080;-68
2024/02/16 10:41:26;;;;;;;99.30;31.02;;;;;;;6.95;100.00;100456.50;5043799;28;20494;-68
2024/02/16 10:43:53;;;;;;;103.20;31.90;;;;;;;6.87;100.00;100450.44;5043125;28;20072;-70
2024/02/16 10:46:19;;;;;;;99.32;31.90;;;;;;;6.88;100.00;100468.94;5043603;28;20093;-67
2024/02/16 10:48:45;;;;;;;84.35;28.67;;;;;;;6.88;100.00;100455.59;5044793;28;20025;-67
2024/02/16 10:51:13;;;;;;;84.97;29.13;;;;;;;6.87;100.00;100471.81;5045699;28;20132;-68
2024/02/16 10:53:39;;;;;;;91.85;31.30;;;;;;;6.86;100.00;100471.00;5041905;28;20064;-66
2024/02/16 10:56:07;;;;;;;93.93;31.10;;;;;;;6.85;100.00;100468.50;5041815;28;20059;-68
2024/02/16 10:58:33;;;;;;;87.53;32.17;;;;;;;6.87;100.00;100464.63;5043107;28;20221;-67
2024/02/16 11:01:11;;;;;;;91.93;31.17;;;;;;;6.91;100.00;100465.91;5042579;28;20029;-67
2024/02/16 11:03:39;;;;;;;85.97;30.77;;;;;;;6.97;100.00;100467.84;5043871;28;20125;-67
2024/02/16 11:06:16;;;;;;;90.03;31.83;;;;;;;6.99;100.00;100449.78;5043719;28;20028;-67
2024/02/16 11:08:42;;;;;;;82.65;31.25;;;;;;;7.00;100.00;100448.75;5044449;28;20522;-68
2024/02/16 11:11:09;;;;;;;84.22;31.73;;;;;;;7.08;100.00;100450.50;5044831;28;20033;-68
2024/02/16 11:13:36;;;;;;;87.22;32.33;;;;;;;7.09;100.00;100432.63;5043676;28;20028;-67